createdAt,value
2022-10-31T00:00:49.439Z,2.08
2022-10-31T00:03:18.185Z,2.00
2022-10-31T00:05:46.507Z,1.67
2022-10-31T00:08:14.880Z,1.95
2022-10-31T00:10:45.225Z,2.05
2022-10-31T00:13:14.231Z,1.85
2022-10-31T00:15:43.277Z,1.90
2022-10-31T00:18:12.174Z,1.80
2022-10-31T00:20:40.615Z,1.60
2022-10-31T00:23:09.404Z,1.80
2022-10-31T00:25:38.433Z,1.70
2022-10-31T00:28:08.806Z,1.80
2022-10-31T00:30:37.127Z,2.10
2022-10-31T00:33:06.037Z,2.65
2022-10-31T00:35:34.258Z,2.15
2022-10-31T00:38:02.563Z,2.30
2022-10-31T00:40:30.856Z,1.70
2022-10-31T00:42:59.714Z,2.75
2022-10-31T00:45:29.421Z,2.53
2022-10-31T00:47:57.974Z,2.22
2022-10-31T00:50:26.355Z,2.63
2022-10-31T00:52:54.659Z,2.40
2022-10-31T00:55:23.019Z,2.35
2022-10-31T00:57:51.289Z,3.15
2022-10-31T01:00:19.700Z,3.88
2022-10-31T01:02:50.793Z,2.80
2022-10-31T01:05:19.207Z,3.58
2022-10-31T01:07:48.865Z,3.47
2022-10-31T01:10:18.849Z,3.50
2022-10-31T01:12:47.814Z,3.83
2022-10-31T01:15:17.476Z,3.80
2022-10-31T01:17:45.781Z,3.83
2022-10-31T01:20:16.462Z,3.70
2022-10-31T01:22:44.772Z,4.38
2022-10-31T01:25:16.180Z,4.00
2022-10-31T01:27:44.378Z,4.00
2022-10-31T01:30:13.416Z,4.00
2022-10-31T01:32:41.778Z,3.85
2022-10-31T01:35:10.675Z,3.60
2022-10-31T01:37:40.607Z,3.67
2022-10-31T01:40:09.626Z,4.25
2022-10-31T01:42:37.907Z,4.20
2022-10-31T01:45:07.425Z,3.70
2022-10-31T01:47:38.721Z,3.95
2022-10-31T01:50:08.263Z,3.85
2022-10-31T01:52:40.839Z,3.88
2022-10-31T01:55:12.410Z,4.13
2022-10-31T01:57:42.355Z,4.70
2022-10-31T02:00:12.191Z,3.97
2022-10-31T02:02:43.514Z,4.47
2022-10-31T02:05:13.184Z,4.15
2022-10-31T02:07:44.958Z,4.28
2022-10-31T02:10:14.565Z,4.15
2022-10-31T02:12:43.780Z,4.53
2022-10-31T02:15:12.812Z,3.50
2022-10-31T02:17:44.404Z,4.25
2022-10-31T02:20:15.700Z,4.13
2022-10-31T02:22:54.356Z,4.88
2022-10-31T02:25:33.860Z,4.03
2022-10-31T02:28:23.455Z,4.43
2022-10-31T02:31:03.213Z,3.70
2022-10-31T02:33:34.166Z,3.88
2022-10-31T02:36:06.612Z,4.05
2022-10-31T02:38:41.631Z,4.32
2022-10-31T02:41:20.514Z,4.40
2022-10-31T02:43:58.281Z,3.88
2022-10-31T02:46:35.175Z,4.53
2022-10-31T02:49:07.976Z,4.65
2022-10-31T02:51:37.409Z,4.65
2022-10-31T02:54:06.188Z,3.72
2022-10-31T02:56:34.491Z,3.92
2022-10-31T02:59:04.490Z,4.72
2022-10-31T03:01:48.365Z,4.95
2022-10-31T03:04:26.937Z,4.30
2022-10-31T03:06:59.214Z,4.40
2022-10-31T03:09:31.029Z,4.35
2022-10-31T03:12:00.958Z,4.30
2022-10-31T03:14:35.491Z,4.38
2022-10-31T03:17:08.163Z,4.55
2022-10-31T03:19:40.958Z,3.85
2022-10-31T03:22:14.532Z,4.72
2022-10-31T03:24:43.439Z,4.50
2022-10-31T03:27:13.741Z,4.35
2022-10-31T03:29:42.951Z,5.18
2022-10-31T03:32:15.184Z,4.90
2022-10-31T03:34:46.528Z,4.30
2022-10-31T03:37:17.667Z,4.97
2022-10-31T03:39:46.902Z,5.47
2022-10-31T03:42:17.515Z,4.93
2022-10-31T03:44:48.171Z,4.18
2022-10-31T03:47:17.923Z,5.07
2022-10-31T03:49:50.360Z,4.75
2022-10-31T03:52:22.053Z,5.07
2022-10-31T03:54:54.788Z,5.32
2022-10-31T03:57:25.440Z,5.55
2022-10-31T03:59:58.922Z,6.03
2022-10-31T04:02:31.851Z,5.47
2022-10-31T04:05:00.880Z,5.40
2022-10-31T04:07:36.043Z,5.22
2022-10-31T04:10:07.163Z,5.78
2022-10-31T04:12:36.980Z,6.00
2022-10-31T04:15:18.343Z,5.35
2022-10-31T04:17:49.892Z,5.47
2022-10-31T04:20:19.414Z,4.90
2022-10-31T04:22:47.729Z,4.68
2022-10-31T04:25:15.964Z,4.97
2022-10-31T04:27:44.410Z,5.00
2022-10-31T04:30:12.983Z,5.40
2022-10-31T04:32:42.740Z,6.25
2022-10-31T04:35:12.723Z,6.13
2022-10-31T04:37:41.088Z,5.63
2022-10-31T04:40:09.924Z,6.38
2022-10-31T04:43:04.878Z,6.55
2022-10-31T04:45:34.109Z,5.90
2022-10-31T04:48:02.747Z,5.93
2022-10-31T04:50:36.565Z,6.03
2022-10-31T04:53:04.820Z,5.93
2022-10-31T04:55:40.755Z,5.65
2022-10-31T04:58:14.860Z,6.35
2022-10-31T05:00:43.598Z,5.65
2022-10-31T05:03:12.131Z,5.22
2022-10-31T05:05:41.788Z,4.38
2022-10-31T05:08:10.426Z,4.50
2022-10-31T05:10:39.187Z,4.40
2022-10-31T05:13:08.263Z,5.25
2022-10-31T05:15:36.708Z,4.40
2022-10-31T05:18:25.209Z,4.63
2022-10-31T05:21:14.106Z,4.53
2022-10-31T05:23:49.548Z,4.25
2022-10-31T05:26:18.983Z,3.72
2022-10-31T05:28:48.904Z,3.67
2022-10-31T05:31:17.781Z,4.57
2022-10-31T05:33:46.294Z,3.90
2022-10-31T05:36:50.856Z,4.80
2022-10-31T05:39:23.634Z,4.72
2022-10-31T05:41:56.876Z,4.63
2022-10-31T05:44:28.484Z,5.57
2022-10-31T05:47:29.293Z,5.45
2022-10-31T05:49:57.702Z,4.60
2022-10-31T05:52:49.640Z,5.25
2022-10-31T05:55:32.174Z,4.60
2022-10-31T05:58:09.556Z,5.03
2022-10-31T06:00:39.672Z,4.38
2022-10-31T06:03:11.760Z,3.83
2022-10-31T06:05:54.985Z,4.80
2022-10-31T06:08:28.275Z,4.13
2022-10-31T06:10:58.137Z,4.43
2022-10-31T06:13:52.599Z,5.03
2022-10-31T06:16:25.924Z,4.95
2022-10-31T06:18:56.712Z,4.80
2022-10-31T06:21:24.962Z,4.13
2022-10-31T06:23:54.929Z,4.72
2022-10-31T06:26:54.974Z,4.50
2022-10-31T06:29:23.919Z,4.57
2022-10-31T06:32:02.418Z,4.80
2022-10-31T06:34:32.257Z,4.95
2022-10-31T06:37:00.511Z,3.95
2022-10-31T06:39:31.659Z,4.93
2022-10-31T06:42:00.145Z,4.93
2022-10-31T06:44:29.284Z,4.80
2022-10-31T06:46:57.636Z,4.50
2022-10-31T06:49:48.328Z,4.68
2022-10-31T06:52:19.037Z,3.65
2022-10-31T06:54:48.576Z,3.63
2022-10-31T06:57:17.161Z,4.22
2022-10-31T06:59:45.676Z,4.35
2022-10-31T07:02:18.748Z,4.40
2022-10-31T07:04:47.027Z,4.28
2022-10-31T07:07:16.778Z,4.45
2022-10-31T07:09:45.190Z,4.78
2022-10-31T07:12:18.657Z,4.80
2022-10-31T07:14:56.172Z,4.80
2022-10-31T07:17:29.881Z,4.90
2022-10-31T07:20:00.711Z,5.10
2022-10-31T07:22:34.731Z,5.28
2022-10-31T07:25:03.521Z,5.03
2022-10-31T07:27:51.523Z,5.97
2022-10-31T07:30:21.176Z,5.43
2022-10-31T07:32:52.974Z,4.90
2022-10-31T07:35:22.687Z,6.65
2022-10-31T07:37:58.447Z,6.03
2022-10-31T07:40:27.551Z,6.30
2022-10-31T07:42:57.250Z,6.38
2022-10-31T07:45:46.840Z,6.93
2022-10-31T07:48:33.491Z,7.43
2022-10-31T07:51:22.471Z,7.13
2022-10-31T07:54:09.467Z,7.13
2022-10-31T07:56:38.173Z,6.10
2022-10-31T07:59:09.765Z,7.20
2022-10-31T08:01:37.981Z,6.45
2022-10-31T08:04:35.439Z,6.93
2022-10-31T08:07:39.557Z,6.30
2022-10-31T08:10:14.484Z,6.28
2022-10-31T08:12:44.023Z,7.47
2022-10-31T08:15:13.974Z,6.38
2022-10-31T08:17:45.439Z,6.97
2022-10-31T08:20:13.723Z,6.63
2022-10-31T08:22:55.212Z,6.30
2022-10-31T08:25:25.524Z,7.03
2022-10-31T08:27:54.594Z,7.00
2022-10-31T08:30:26.168Z,7.57
2022-10-31T08:33:15.512Z,7.47
2022-10-31T08:36:09.164Z,7.45
2022-10-31T08:39:02.394Z,7.88
2022-10-31T08:41:31.867Z,8.25
2022-10-31T08:44:01.775Z,7.63
2022-10-31T08:46:33.656Z,7.90
2022-10-31T08:49:01.889Z,8.55
2022-10-31T08:51:30.573Z,8.95
2022-10-31T08:54:00.154Z,7.90
2022-10-31T08:56:37.602Z,8.77
2022-10-31T08:59:14.536Z,9.30
2022-10-31T09:02:11.097Z,8.85
2022-10-31T09:04:39.771Z,9.02
2022-10-31T09:07:23.279Z,9.10
2022-10-31T09:09:51.754Z,9.60
2022-10-31T09:12:21.284Z,10.43
2022-10-31T09:15:08.681Z,9.52
2022-10-31T09:17:50.110Z,10.25
2022-10-31T09:20:39.630Z,10.05
2022-10-31T09:23:09.082Z,9.40
2022-10-31T09:25:40.332Z,10.10
2022-10-31T09:28:37.576Z,10.68
2022-10-31T09:31:14.548Z,10.48
2022-10-31T09:34:02.571Z,10.63
2022-10-31T09:36:40.807Z,10.65
2022-10-31T09:39:13.580Z,10.18
2022-10-31T09:41:56.301Z,10.80
2022-10-31T09:44:29.206Z,10.77
2022-10-31T09:47:01.026Z,10.82
2022-10-31T09:49:40.932Z,10.60
2022-10-31T09:52:13.109Z,11.52
2022-10-31T09:54:43.618Z,11.13
2022-10-31T09:57:14.961Z,11.13
2022-10-31T09:59:46.977Z,11.73
2022-10-31T10:02:19.703Z,11.60
2022-10-31T10:04:50.964Z,11.50
2022-10-31T10:07:23.805Z,10.52
2022-10-31T10:10:15.947Z,10.38
2022-10-31T10:13:09.434Z,11.25
2022-10-31T10:15:52.792Z,12.10
2022-10-31T10:18:24.561Z,12.30
2022-10-31T10:21:00.270Z,11.10
2022-10-31T10:23:36.563Z,11.55
2022-10-31T10:26:11.125Z,11.02
2022-10-31T10:28:42.639Z,10.15
2022-10-31T10:31:13.042Z,10.20
2022-10-31T10:33:43.798Z,11.02
2022-10-31T10:36:16.646Z,11.70
2022-10-31T10:38:51.384Z,11.85
2022-10-31T10:41:20.513Z,11.52
2022-10-31T10:43:51.445Z,11.30
2022-10-31T10:46:38.943Z,11.77
2022-10-31T10:49:11.733Z,11.40
2022-10-31T10:52:02.693Z,11.85
2022-10-31T10:54:43.911Z,11.48
2022-10-31T10:57:19.816Z,11.77
2022-10-31T10:59:48.167Z,11.57
2022-10-31T11:02:19.594Z,10.38
2022-10-31T11:04:48.216Z,11.13
2022-10-31T11:07:18.001Z,11.27
2022-10-31T11:09:47.365Z,10.63
2022-10-31T11:12:19.945Z,10.80
2022-10-31T11:14:49.435Z,12.40
2022-10-31T11:17:25.218Z,11.90
2022-10-31T11:20:02.243Z,12.05
2022-10-31T11:22:31.936Z,12.38
2022-10-31T11:25:00.261Z,11.57
2022-10-31T11:27:28.739Z,13.00
2022-10-31T11:30:06.476Z,12.18
2022-10-31T11:32:34.927Z,11.35
2022-10-31T11:35:04.413Z,10.90
2022-10-31T11:37:36.403Z,11.48
2022-10-31T11:40:07.266Z,11.02
2022-10-31T11:42:38.519Z,12.13
2022-10-31T11:45:10.576Z,13.02
2022-10-31T11:47:38.913Z,11.65
2022-10-31T11:50:12.179Z,10.52
2022-10-31T11:52:42.582Z,10.30
2022-10-31T11:55:18.494Z,11.75
2022-10-31T11:57:47.516Z,11.02
2022-10-31T12:00:24.238Z,11.68
2022-10-31T12:02:52.761Z,11.57
2022-10-31T12:05:22.150Z,11.55
2022-10-31T12:07:52.351Z,10.77
2022-10-31T12:10:23.619Z,11.02
2022-10-31T12:13:00.523Z,11.77
2022-10-31T12:15:32.207Z,12.75
2022-10-31T12:18:08.693Z,12.25
2022-10-31T12:20:44.131Z,11.80
2022-10-31T12:23:17.654Z,12.23
2022-10-31T12:25:47.681Z,12.00
2022-10-31T12:28:28.082Z,12.57
2022-10-31T12:30:59.565Z,12.50
2022-10-31T12:33:38.003Z,13.15
2022-10-31T12:36:15.491Z,12.95
2022-10-31T12:38:58.328Z,13.07
2022-10-31T12:41:40.496Z,14.20
2022-10-31T12:44:09.606Z,13.13
2022-10-31T12:46:47.330Z,14.30
2022-10-31T12:49:24.735Z,13.25
2022-10-31T12:51:58.264Z,14.38
2022-10-31T12:54:37.750Z,13.02
2022-10-31T12:57:09.961Z,13.43
2022-10-31T12:59:40.526Z,13.95
2022-10-31T13:02:13.764Z,13.93
2022-10-31T13:04:44.962Z,15.55
2022-10-31T13:07:17.008Z,13.30
2022-10-31T13:09:50.480Z,15.75
2022-10-31T13:12:20.630Z,14.27
2022-10-31T13:14:50.747Z,12.55
2022-10-31T13:17:23.995Z,16.73
2022-10-31T13:19:53.029Z,15.65
2022-10-31T13:22:23.646Z,16.60
2022-10-31T13:24:57.386Z,15.50
2022-10-31T13:27:27.071Z,16.65
2022-10-31T13:30:00.942Z,15.73
2022-10-31T13:32:29.614Z,16.48
2022-10-31T13:35:00.506Z,15.25
2022-10-31T13:37:32.175Z,16.30
2022-10-31T13:40:15.953Z,16.92
2022-10-31T13:42:52.425Z,15.18
2022-10-31T13:45:22.298Z,15.45
2022-10-31T13:48:01.784Z,16.83
2022-10-31T13:50:31.016Z,14.65
2022-10-31T13:53:13.512Z,15.88
2022-10-31T13:55:44.910Z,15.18
2022-10-31T13:58:24.085Z,16.15
2022-10-31T14:01:02.609Z,15.55
2022-10-31T14:03:57.766Z,16.27
2022-10-31T14:06:19.262Z,16.83
2022-10-31T14:08:51.073Z,17.17
2022-10-31T14:11:25.146Z,16.55
2022-10-31T14:13:53.670Z,17.10
2022-10-31T14:16:23.610Z,17.15
2022-10-31T14:18:53.899Z,16.30
2022-10-31T14:21:30.532Z,15.90
2022-10-31T14:23:59.111Z,16.80
2022-10-31T14:26:36.034Z,15.70
2022-10-31T14:29:05.635Z,16.75
2022-10-31T14:31:36.628Z,17.83
2022-10-31T14:34:08.610Z,14.35
2022-10-31T14:36:43.503Z,17.45
2022-10-31T14:39:15.693Z,16.33
2022-10-31T14:41:50.188Z,17.42
2022-10-31T14:44:45.559Z,16.10
2022-10-31T14:47:19.167Z,16.23
2022-10-31T14:49:53.716Z,15.50
2022-10-31T14:52:22.176Z,14.65
2022-10-31T14:54:52.966Z,15.23
2022-10-31T14:57:24.550Z,15.35
2022-10-31T14:59:57.875Z,15.90
2022-10-31T15:02:32.043Z,14.18
2022-10-31T15:05:01.145Z,15.40
2022-10-31T15:07:34.987Z,16.08
2022-10-31T15:10:07.321Z,15.30
2022-10-31T15:12:38.983Z,15.30
2022-10-31T15:15:16.012Z,15.07
2022-10-31T15:17:46.467Z,16.58
2022-10-31T15:20:14.909Z,14.52
2022-10-31T15:22:43.194Z,14.85
2022-10-31T15:25:17.818Z,14.02
2022-10-31T15:27:48.316Z,13.90
2022-10-31T15:30:19.022Z,15.95
2022-10-31T15:32:57.618Z,15.93
2022-10-31T15:35:27.648Z,15.88
2022-10-31T15:37:56.176Z,17.25
2022-10-31T15:40:25.603Z,16.77
2022-10-31T15:42:57.210Z,16.67
2022-10-31T15:45:27.771Z,15.45
2022-10-31T15:47:59.699Z,15.35
2022-10-31T15:50:30.970Z,15.95
2022-10-31T15:53:02.658Z,15.27
2022-10-31T15:55:33.311Z,15.52
2022-10-31T15:58:08.556Z,15.70
2022-10-31T16:00:38.384Z,15.18
2022-10-31T16:03:07.510Z,16.38
2022-10-31T16:05:40.162Z,16.10
2022-10-31T16:08:23.344Z,17.20
2022-10-31T16:10:51.730Z,16.58
2022-10-31T16:13:22.704Z,19.10
2022-10-31T16:16:03.700Z,20.25
2022-10-31T16:18:41.215Z,17.33
2022-10-31T16:21:10.686Z,17.48
2022-10-31T16:23:40.528Z,16.25
2022-10-31T16:26:09.511Z,15.85
2022-10-31T16:28:39.993Z,15.57
2022-10-31T16:31:15.900Z,14.40
2022-10-31T16:33:44.309Z,15.02
2022-10-31T16:36:35.715Z,12.95
2022-10-31T16:39:04.825Z,13.25
2022-10-31T16:41:35.893Z,12.40
2022-10-31T16:44:07.358Z,12.82
2022-10-31T16:46:35.618Z,11.57
2022-10-31T16:49:03.929Z,11.52
2022-10-31T16:51:32.101Z,11.25
2022-10-31T16:54:00.431Z,11.98
2022-10-31T16:56:30.407Z,11.50
2022-10-31T16:59:00.282Z,11.45
2022-10-31T17:01:30.022Z,10.00
2022-10-31T17:03:58.519Z,11.85
2022-10-31T17:06:28.392Z,11.02
2022-10-31T17:08:56.739Z,11.70
2022-10-31T17:11:26.615Z,11.52
2022-10-31T17:13:55.705Z,11.63
2022-10-31T17:16:24.060Z,10.88
2022-10-31T17:18:53.798Z,10.95
2022-10-31T17:21:24.022Z,10.57
2022-10-31T17:23:52.662Z,11.43
2022-10-31T17:26:20.899Z,12.95
2022-10-31T17:28:49.355Z,11.32
2022-10-31T17:31:22.663Z,12.02
2022-10-31T17:33:51.254Z,11.85
2022-10-31T17:36:20.818Z,11.20
2022-10-31T17:38:49.122Z,11.70
2022-10-31T17:41:17.323Z,11.48
2022-10-31T17:43:45.641Z,12.02
2022-10-31T17:46:14.072Z,12.45
2022-10-31T17:48:42.649Z,11.73
2022-10-31T17:51:10.964Z,12.10
2022-10-31T17:53:40.860Z,12.57
2022-10-31T17:56:10.058Z,12.55
2022-10-31T17:58:38.683Z,12.52
2022-10-31T18:01:09.983Z,14.13
2022-10-31T18:03:38.364Z,12.80
2022-10-31T18:06:06.764Z,12.70
2022-10-31T18:08:35.888Z,13.50
2022-10-31T18:11:10.052Z,13.18
2022-10-31T18:13:38.910Z,14.43
2022-10-31T18:16:08.884Z,12.98
2022-10-31T18:18:37.141Z,13.40
2022-10-31T18:21:05.786Z,13.88
2022-10-31T18:23:34.129Z,13.63
2022-10-31T18:26:02.379Z,13.60
2022-10-31T18:28:32.057Z,13.65
2022-10-31T18:31:00.693Z,14.15
2022-10-31T18:33:28.915Z,12.85
2022-10-31T18:35:57.293Z,12.75
2022-10-31T18:38:25.879Z,12.63
2022-10-31T18:40:54.162Z,13.35
2022-10-31T18:43:22.492Z,12.93
2022-10-31T18:45:56.744Z,11.73
2022-10-31T18:48:28.345Z,11.13
2022-10-31T18:50:58.098Z,11.57
2022-10-31T18:53:26.532Z,12.00
2022-10-31T18:55:54.880Z,11.10
2022-10-31T18:58:23.228Z,10.77
2022-10-31T19:00:55.634Z,11.18
2022-10-31T19:03:26.199Z,10.93
2022-10-31T19:05:56.231Z,11.57
2022-10-31T19:08:24.694Z,10.15
2022-10-31T19:10:52.978Z,10.02
2022-10-31T19:13:21.198Z,10.20
2022-10-31T19:15:49.681Z,10.90
2022-10-31T19:18:19.437Z,10.10
2022-10-31T19:20:47.668Z,9.55
2022-10-31T19:23:17.360Z,9.27
2022-10-31T19:25:47.911Z,9.38
2022-10-31T19:28:16.284Z,9.70
2022-10-31T19:30:44.514Z,9.27
2022-10-31T19:33:12.695Z,9.88
2022-10-31T19:35:42.686Z,8.77
2022-10-31T19:38:10.921Z,8.68
2022-10-31T19:40:41.552Z,8.38
2022-10-31T19:43:09.936Z,7.93
2022-10-31T19:45:38.185Z,7.20
2022-10-31T19:48:06.727Z,8.52
2022-10-31T19:50:38.063Z,8.18
2022-10-31T19:53:08.884Z,7.30
2022-10-31T19:55:40.927Z,7.78
2022-10-31T19:58:09.582Z,7.30
2022-10-31T20:00:39.538Z,7.72
2022-10-31T20:03:07.856Z,6.57
2022-10-31T20:05:41.058Z,6.93
2022-10-31T20:08:13.184Z,6.28
2022-10-31T20:10:42.011Z,7.65
2022-10-31T20:13:11.004Z,6.80
2022-10-31T20:15:39.563Z,6.85
2022-10-31T20:18:07.823Z,6.40
2022-10-31T20:20:36.090Z,6.88
2022-10-31T20:23:04.457Z,6.28
2022-10-31T20:25:34.211Z,6.28
2022-10-31T20:28:02.630Z,6.20
2022-10-31T20:30:31.197Z,5.82
2022-10-31T20:32:59.479Z,5.97
2022-10-31T20:35:27.722Z,5.97
2022-10-31T20:37:55.939Z,6.30
2022-10-31T20:40:24.358Z,6.13
2022-10-31T20:42:53.885Z,5.10
2022-10-31T20:45:22.095Z,5.47
2022-10-31T20:47:50.513Z,5.57
2022-10-31T20:50:18.926Z,6.03
2022-10-31T20:52:49.813Z,5.82
2022-10-31T20:55:18.243Z,5.53
2022-10-31T20:57:46.481Z,5.33
2022-10-31T21:00:16.400Z,6.05
2022-10-31T21:02:45.062Z,6.07
2022-10-31T21:05:15.120Z,5.85
2022-10-31T21:07:43.778Z,5.63
2022-10-31T21:10:15.814Z,5.57
2022-10-31T21:12:44.571Z,5.25
2022-10-31T21:15:13.818Z,5.78
2022-10-31T21:17:46.279Z,5.75
2022-10-31T21:20:14.624Z,5.75
2022-10-31T21:22:42.837Z,5.60
2022-10-31T21:25:13.941Z,6.13
2022-10-31T21:27:42.465Z,5.18
2022-10-31T21:30:10.953Z,4.85
2022-10-31T21:32:41.629Z,6.18
2022-10-31T21:35:11.714Z,5.53
2022-10-31T21:37:39.921Z,5.00
2022-10-31T21:40:08.809Z,6.13
2022-10-31T21:42:37.007Z,5.80
2022-10-31T21:45:05.566Z,5.82
2022-10-31T21:47:33.918Z,6.10
2022-10-31T21:50:02.201Z,5.85
2022-10-31T21:52:31.827Z,5.38
2022-10-31T21:54:59.200Z,4.50
2022-10-31T21:57:27.439Z,5.78
2022-10-31T21:59:55.770Z,6.32
2022-10-31T22:02:24.090Z,5.45
2022-10-31T22:04:52.344Z,5.38
2022-10-31T22:07:20.509Z,5.10
2022-10-31T22:09:50.210Z,5.20
2022-10-31T22:12:18.488Z,4.85
2022-10-31T22:14:46.776Z,4.60
2022-10-31T22:17:15.159Z,4.85
2022-10-31T22:19:43.343Z,4.88
2022-10-31T22:22:13.042Z,4.78
2022-10-31T22:24:41.673Z,4.97
2022-10-31T22:27:11.727Z,4.57
2022-10-31T22:29:39.995Z,5.13
2022-10-31T22:32:08.592Z,4.47
2022-10-31T22:34:36.827Z,5.03
2022-10-31T22:37:05.043Z,5.13
2022-10-31T22:39:33.467Z,4.90
2022-10-31T22:42:01.693Z,4.82
2022-10-31T22:44:31.276Z,5.03
2022-10-31T22:46:59.645Z,4.45
2022-10-31T22:49:27.900Z,4.65
2022-10-31T22:51:59.633Z,4.80
2022-10-31T22:54:27.983Z,5.10
2022-10-31T22:56:56.242Z,4.90
2022-10-31T22:59:24.439Z,4.78
2022-10-31T23:01:54.613Z,4.35
2022-10-31T23:04:23.024Z,4.68
2022-10-31T23:06:51.263Z,4.22
2022-10-31T23:09:19.710Z,4.75
2022-10-31T23:11:47.904Z,4.95
2022-10-31T23:14:18.496Z,4.20
2022-10-31T23:16:47.733Z,4.57
2022-10-31T23:19:18.387Z,4.45
2022-10-31T23:21:57.513Z,3.67
2022-10-31T23:24:26.814Z,4.22
2022-10-31T23:27:09.894Z,4.25
2022-10-31T23:29:39.908Z,4.63
2022-10-31T23:32:09.596Z,5.15
2022-10-31T23:34:39.451Z,4.70
2022-10-31T23:39:41.263Z,4.68
2022-10-31T23:42:09.860Z,4.78
2022-10-31T23:44:38.115Z,4.78
2022-10-31T23:47:06.509Z,5.25
2022-10-31T23:49:34.994Z,4.95
2022-10-31T23:52:04.958Z,5.38
2022-10-31T23:54:33.642Z,5.22
2022-10-31T23:57:02.417Z,4.95
2022-10-31T23:59:31.032Z,4.75
